createdAt,value
2022-11-22T00:13:03.474Z,3.60
2022-11-22T00:15:31.700Z,3.50
2022-11-22T00:17:58.595Z,3.60
2022-11-22T00:20:25.554Z,3.60
2022-11-22T00:25:19.756Z,3.60
2022-11-22T00:30:13.770Z,3.60
2022-11-22T00:32:42.171Z,3.60
2022-11-22T00:35:10.724Z,3.50
2022-11-22T00:37:37.881Z,3.50
2022-11-22T00:40:06.083Z,3.50
2022-11-22T00:42:32.893Z,3.60
2022-11-22T00:49:55.250Z,3.70
2022-11-22T00:57:21.982Z,3.70
2022-11-22T01:07:11.855Z,4.00
2022-11-22T01:09:38.848Z,4.00
2022-11-22T01:12:06.048Z,4.10
2022-11-22T01:14:32.975Z,4.20
2022-11-22T01:16:59.773Z,4.30
2022-11-22T01:21:54.099Z,4.30
2022-11-22T01:24:22.417Z,4.60
2022-11-22T01:41:33.844Z,4.20
2022-11-22T01:44:19.274Z,4.30
2022-11-22T01:46:49.246Z,4.30
2022-11-22T01:49:23.231Z,4.20
2022-11-22T01:51:52.397Z,4.30
2022-11-22T01:54:24.205Z,4.30
2022-11-22T01:56:56.884Z,4.20
2022-11-22T01:59:30.276Z,4.30
2022-11-22T02:04:28.194Z,4.20
2022-11-22T02:06:57.652Z,4.20
2022-11-22T02:09:24.629Z,4.20
2022-11-22T02:11:56.171Z,4.20
2022-11-22T02:14:26.577Z,4.20
2022-11-22T02:19:29.412Z,4.10
2022-11-22T02:22:03.590Z,4.10
2022-11-22T02:24:37.531Z,4.20
2022-11-22T02:27:06.442Z,4.10
2022-11-22T02:39:26.266Z,4.10
2022-11-22T02:41:53.627Z,4.10
2022-11-22T02:44:22.507Z,4.00
2022-11-22T02:46:50.879Z,4.00
2022-11-22T02:49:19.722Z,4.00
2022-11-22T03:01:39.115Z,4.10
2022-11-22T03:09:00.605Z,4.20
2022-11-22T03:11:27.435Z,4.20
2022-11-22T03:18:50.776Z,4.30
2022-11-22T03:23:47.896Z,4.40
2022-11-22T03:36:05.741Z,4.50
2022-11-22T03:48:21.466Z,4.60
2022-11-22T03:50:48.268Z,4.70
2022-11-22T03:53:16.616Z,4.70
2022-11-22T04:03:05.552Z,4.70
2022-11-22T04:10:28.751Z,4.70
2022-11-22T04:12:58.300Z,4.70
2022-11-22T04:20:40.730Z,4.70
2022-11-22T04:23:09.847Z,4.80
2022-11-22T04:25:39.873Z,4.80
2022-11-22T04:28:07.178Z,4.80
2022-11-22T04:33:20.602Z,4.80
2022-11-22T04:40:43.470Z,4.90
2022-11-22T05:58:40.460Z,5.10
2022-11-22T06:01:09.848Z,5.10
2022-11-22T06:03:36.856Z,5.10
2022-11-22T06:08:33.182Z,5.20
2022-11-22T06:11:04.925Z,5.10
2022-11-22T06:13:33.925Z,5.10
2022-11-22T06:16:02.792Z,5.00
2022-11-22T06:20:58.859Z,5.10
2022-11-22T06:23:25.891Z,5.20
2022-11-22T06:25:57.588Z,5.20
2022-11-22T06:28:24.678Z,5.30
2022-11-22T06:30:51.468Z,5.30
2022-11-22T06:33:19.806Z,5.40
2022-11-22T06:35:46.645Z,5.40
2022-11-22T06:43:08.029Z,5.60
2022-11-22T06:45:34.828Z,5.60
2022-11-22T06:50:30.395Z,5.60
2022-11-22T07:00:38.632Z,5.70
2022-11-22T07:05:33.855Z,5.70
2022-11-22T07:10:38.881Z,5.80
2022-11-22T07:13:05.724Z,5.80
2022-11-22T07:15:32.500Z,5.80
2022-11-22T07:17:59.277Z,5.80
2022-11-22T07:20:26.119Z,5.80
2022-11-22T07:22:54.475Z,5.90
2022-11-22T07:30:16.198Z,5.90
2022-11-22T07:32:46.998Z,5.90
2022-11-22T07:35:13.925Z,5.80
2022-11-22T07:37:40.750Z,5.90
2022-11-22T07:40:11.109Z,5.90
2022-11-22T07:42:37.885Z,5.90
2022-11-22T07:45:05.411Z,5.90
2022-11-22T07:47:32.217Z,6.00
2022-11-22T07:57:22.140Z,6.20
2022-11-22T07:59:48.965Z,6.20
2022-11-22T08:02:15.760Z,6.20
2022-11-22T08:04:42.746Z,6.30
2022-11-22T08:07:09.683Z,6.30
2022-11-22T08:14:32.594Z,6.30
2022-11-22T08:21:58.506Z,6.30
2022-11-22T08:26:52.714Z,6.40
2022-11-22T08:29:19.601Z,6.40
2022-11-22T08:31:47.750Z,6.50
2022-11-22T08:36:41.685Z,6.60
2022-11-22T08:41:35.698Z,6.60
2022-11-22T08:48:58.237Z,6.80
2022-11-22T08:51:25.059Z,6.80
2022-11-22T08:53:51.850Z,6.80
2022-11-22T08:56:18.661Z,6.80
2022-11-22T09:01:14.726Z,6.80
2022-11-22T09:09:22.131Z,9.10
2022-11-22T09:16:41.994Z,7.00
2022-11-22T09:19:09.766Z,7.10
2022-11-22T09:21:38.007Z,7.10
2022-11-22T09:24:05.591Z,7.20
2022-11-22T09:31:27.088Z,7.30
2022-11-22T09:33:53.983Z,7.30
2022-11-22T09:36:22.892Z,7.40
2022-11-22T09:38:52.043Z,7.30
2022-11-22T09:41:41.510Z,7.00
2022-11-22T09:44:16.481Z,7.40
2022-11-22T09:46:53.506Z,7.50
2022-11-22T09:49:27.627Z,7.50
2022-11-22T09:52:01.465Z,7.50
2022-11-22T09:54:37.744Z,7.40
2022-11-22T09:57:12.796Z,7.40
2022-11-22T09:59:45.324Z,7.50
2022-11-22T10:02:19.392Z,9.20
2022-11-22T10:04:54.751Z,7.50
2022-11-22T10:07:26.191Z,9.50
2022-11-22T10:09:59.635Z,7.40
2022-11-22T10:12:32.189Z,7.40
2022-11-22T10:15:04.723Z,7.50
2022-11-22T10:17:42.341Z,7.50
2022-11-22T10:20:14.951Z,7.50
2022-11-22T10:22:41.920Z,7.50
2022-11-22T10:25:16.498Z,7.50
2022-11-22T10:30:15.256Z,7.60
2022-11-22T10:32:52.631Z,7.70
2022-11-22T10:35:30.580Z,7.70
2022-11-22T10:38:11.389Z,7.70
2022-11-22T10:40:48.534Z,8.90
2022-11-22T10:43:27.782Z,7.70
2022-11-22T10:46:02.948Z,7.70
2022-11-22T10:48:35.780Z,7.70
2022-11-22T10:51:09.392Z,7.80
2022-11-22T10:53:52.751Z,7.80
2022-11-22T10:56:26.422Z,7.90
2022-11-22T10:59:03.569Z,8.00
2022-11-22T11:01:39.065Z,8.00
2022-11-22T11:04:08.271Z,8.00
2022-11-22T11:10:09.737Z,7.90
2022-11-22T11:12:26.579Z,7.90
2022-11-22T11:14:58.052Z,8.00
2022-11-22T11:17:29.693Z,7.90
2022-11-22T11:20:00.584Z,8.00
2022-11-22T11:22:58.749Z,8.10
2022-11-22T11:25:27.664Z,10.30
2022-11-22T11:27:58.436Z,8.10
2022-11-22T11:30:25.599Z,8.20
2022-11-22T11:32:54.184Z,8.20
2022-11-22T11:35:24.146Z,8.20
2022-11-22T11:40:29.221Z,8.20
2022-11-22T11:43:19.889Z,8.30
2022-11-22T11:45:47.153Z,8.30
2022-11-22T11:48:28.177Z,8.30
2022-11-22T11:51:14.203Z,8.40
2022-11-22T11:53:43.642Z,8.40
2022-11-22T11:56:48.173Z,8.40
2022-11-22T11:59:18.494Z,8.40
2022-11-22T12:01:55.564Z,8.40
2022-11-22T12:04:25.441Z,8.60
2022-11-22T12:07:03.011Z,8.50
2022-11-22T12:12:38.183Z,8.50
2022-11-22T12:15:15.870Z,8.60
2022-11-22T12:17:56.125Z,8.60
2022-11-22T12:20:27.668Z,8.60
2022-11-22T12:23:03.070Z,8.60
2022-11-22T12:25:33.784Z,8.60
2022-11-22T12:28:10.423Z,8.60
2022-11-22T12:30:41.177Z,8.60
2022-11-22T12:33:16.065Z,8.60
2022-11-22T12:35:44.483Z,8.60
2022-11-22T12:38:16.141Z,9.30
2022-11-22T12:40:45.000Z,8.50
2022-11-22T12:43:19.882Z,8.50
2022-11-22T12:45:52.359Z,8.60
2022-11-22T12:48:26.443Z,8.50
2022-11-22T12:50:56.140Z,8.50
2022-11-22T12:53:27.662Z,8.50
2022-11-22T12:56:01.037Z,8.60
2022-11-22T12:58:35.719Z,11.00
2022-11-22T13:01:14.750Z,8.60
2022-11-22T13:03:50.421Z,8.60
2022-11-22T13:06:22.846Z,11.70
2022-11-22T13:09:03.493Z,8.60
2022-11-22T13:11:35.608Z,8.60
2022-11-22T13:14:06.558Z,8.60
2022-11-22T13:16:35.119Z,8.60
2022-11-22T13:19:05.720Z,8.50
2022-11-22T13:21:45.475Z,8.50
2022-11-22T13:24:29.313Z,8.60
2022-11-22T13:27:08.826Z,8.60
2022-11-22T13:29:39.603Z,8.60
2022-11-22T13:32:20.369Z,8.60
2022-11-22T13:35:07.727Z,8.70
2022-11-22T13:37:38.618Z,8.70
2022-11-22T13:40:21.556Z,8.70
2022-11-22T13:45:23.029Z,8.70
2022-11-22T13:47:51.390Z,8.60
2022-11-22T13:50:51.895Z,8.60
2022-11-22T13:53:24.460Z,8.70
2022-11-22T13:58:55.609Z,8.80
2022-11-22T14:02:00.080Z,8.70
2022-11-22T14:04:40.260Z,8.70
2022-11-22T14:07:32.366Z,8.80
2022-11-22T14:10:00.906Z,8.80
2022-11-22T14:12:52.990Z,8.70
2022-11-22T14:15:44.498Z,8.70
2022-11-22T14:18:24.485Z,8.70
2022-11-22T14:21:03.234Z,8.70
2022-11-22T14:23:40.708Z,8.70
2022-11-22T14:26:20.775Z,8.70
2022-11-22T14:29:01.310Z,8.80
2022-11-22T14:31:31.192Z,8.80
2022-11-22T14:34:18.560Z,8.70
2022-11-22T14:37:25.161Z,8.80
2022-11-22T14:40:15.541Z,8.80
2022-11-22T14:42:51.961Z,8.80
2022-11-22T14:45:24.941Z,8.80
2022-11-22T14:48:05.553Z,8.80
2022-11-22T14:50:40.308Z,8.90
2022-11-22T14:53:19.811Z,8.80
2022-11-22T14:55:48.965Z,8.70
2022-11-22T14:58:21.925Z,8.70
2022-11-22T15:01:11.844Z,9.60
2022-11-22T15:09:17.866Z,8.70
2022-11-22T15:09:23.613Z,8.60
2022-11-22T15:10:07.718Z,8.50
2022-11-22T15:12:53.649Z,8.50
2022-11-22T16:01:30.245Z,7.80
2022-11-22T16:03:59.051Z,7.80
2022-11-22T16:06:29.153Z,7.80
2022-11-22T16:08:57.418Z,7.80
2022-11-22T16:11:27.533Z,7.80
2022-11-22T16:13:54.503Z,7.80
2022-11-22T16:16:26.880Z,9.90
2022-11-22T16:19:20.601Z,7.70
2022-11-22T16:21:55.979Z,7.70
2022-11-22T16:24:27.211Z,7.70
2022-11-22T16:26:56.177Z,7.70
2022-11-22T16:29:31.154Z,7.60
2022-11-22T16:32:03.300Z,7.70
2022-11-22T16:34:31.478Z,7.60
2022-11-22T16:44:21.897Z,7.70
2022-11-22T16:46:48.723Z,7.50
2022-11-22T16:49:18.221Z,7.60
2022-11-22T16:51:47.065Z,7.60
2022-11-22T16:54:16.423Z,7.60
2022-11-22T16:59:12.868Z,7.60
2022-11-22T17:01:42.023Z,7.50
2022-11-22T17:04:19.808Z,7.50
2022-11-22T17:06:48.017Z,7.60
2022-11-22T17:11:43.809Z,7.60
2022-11-22T17:14:14.436Z,7.50
2022-11-22T17:21:58.329Z,7.50
2022-11-22T17:29:43.464Z,7.40
2022-11-22T17:32:06.521Z,7.40
2022-11-22T17:37:02.596Z,7.30
2022-11-22T17:44:25.640Z,7.30
2022-11-22T17:51:46.977Z,7.30
2022-11-22T17:54:15.716Z,7.40
2022-11-22T17:59:10.073Z,7.40
2022-11-22T18:04:04.429Z,7.40
2022-11-22T18:06:32.061Z,7.30
2022-11-22T18:11:28.489Z,7.30
2022-11-22T18:13:56.426Z,7.30
2022-11-22T18:16:28.311Z,7.30
2022-11-22T18:21:26.055Z,7.20
2022-11-22T18:29:40.751Z,7.20
2022-11-22T18:39:47.838Z,7.20
2022-11-22T18:42:16.279Z,7.20
2022-11-22T18:44:44.512Z,7.20
2022-11-22T19:02:25.626Z,7.30
2022-11-22T19:17:10.891Z,7.30
2022-11-22T19:19:39.095Z,7.30
2022-11-22T19:36:51.897Z,7.40
2022-11-22T19:54:07.511Z,7.50
2022-11-22T19:56:36.620Z,7.50
2022-11-22T19:59:06.028Z,7.50
2022-11-22T20:01:34.512Z,7.50
2022-11-22T20:04:03.646Z,7.50
2022-11-22T20:06:31.469Z,8.80
2022-11-22T20:09:02.711Z,7.50
2022-11-22T20:11:31.043Z,7.50
2022-11-22T20:16:26.938Z,7.50
2022-11-22T20:18:54.452Z,7.50
2022-11-22T20:28:47.398Z,7.50
2022-11-22T20:31:16.858Z,8.50
2022-11-22T20:33:45.731Z,7.50
2022-11-22T20:36:14.558Z,7.50
2022-11-22T20:38:42.793Z,7.50
2022-11-22T20:41:11.559Z,7.50
2022-11-22T20:43:38.995Z,7.50
2022-11-22T20:46:09.048Z,7.50
2022-11-22T20:48:36.266Z,7.50
2022-11-22T20:51:05.474Z,7.60
2022-11-22T20:58:27.062Z,7.50
2022-11-22T21:03:24.570Z,7.50
2022-11-22T21:05:52.062Z,7.50
2022-11-22T21:15:40.742Z,7.50
2022-11-22T21:21:01.693Z,7.30
2022-11-22T21:30:53.695Z,7.30
2022-11-22T21:38:16.847Z,7.30
2022-11-22T21:40:50.325Z,7.30
2022-11-22T21:45:44.933Z,7.30
2022-11-22T21:55:35.343Z,7.20
2022-11-22T22:12:52.164Z,7.10
2022-11-22T22:20:13.851Z,7.10
2022-11-22T22:25:08.351Z,7.00
2022-11-22T22:30:04.515Z,7.10
2022-11-22T22:44:47.503Z,7.10
2022-11-22T22:47:15.715Z,7.00
2022-11-22T22:49:42.492Z,7.00
2022-11-22T22:54:36.457Z,7.10
2022-11-22T23:04:27.080Z,7.10
2022-11-22T23:14:35.070Z,7.20
2022-11-22T23:19:30.810Z,7.30
2022-11-22T23:21:57.844Z,7.30
2022-11-22T23:26:51.928Z,7.40
2022-11-22T23:34:13.622Z,7.30
2022-11-22T23:36:41.925Z,7.40
2022-11-22T23:44:04.028Z,7.30
2022-11-22T23:49:00.068Z,7.50
2022-11-22T23:51:28.349Z,7.50
2022-11-22T23:53:57.660Z,7.50
2022-11-22T23:56:24.783Z,7.50
2022-11-22T23:58:52.436Z,8.80
